This is the latest recevied weather packets stored in our database for station/object KI6AOK. If no packets are shown the sender has not sent any weather packets the latest 10 day(s).
| Time | Temp. | Humidity | Pressure | Rain* | Wind** | Luminosity | Snow |
|---|---|---|---|---|---|---|---|
| 1777223795 | 14.44° C | 86% | 1014.3 hPa | 3.05 mm | - | 148 W/m² | - |
| 1777223490 | 15.56° C | 80% | 1014.1 hPa | 0 mm | - | 125 W/m² | - |
| 1777223188 | 15.56° C | 79% | 1014.2 hPa | 0 mm | - | 241 W/m² | - |
| 1777222885 | 15.56° C | 77% | 1014 hPa | 0 mm | - | 315 W/m² | - |
| 1777222583 | 15.56° C | 79% | 1014.1 hPa | 0 mm | - | 1084 W/m² | - |
| 1777222280 | 15° C | 81% | 1013.8 hPa | 0 mm | - | 1096 W/m² | - |
| 1777221979 | 14.44° C | 84% | 1014 hPa | 0 mm | - | 547 W/m² | - |
| 1777221673 | 13.89° C | 83% | 1014.1 hPa | 0 mm | - | 454 W/m² | - |
| 1777221370 | 13.89° C | 85% | 1013.8 hPa | 0 mm | - | 351 W/m² | - |
| 1777221069 | 13.89° C | 85% | 1013.9 hPa | 0 mm | - | 439 W/m² | - |
| 1777220768 | 13.89° C | 86% | 1013.8 hPa | 0 mm | - | 327 W/m² | - |
| 1777220464 | 13.89° C | 84% | 1013.9 hPa | 0 mm | - | 351 W/m² | - |
| 1777220164 | 13.89° C | 85% | 1014 hPa | 0 mm | - | 248 W/m² | - |
| 1777219861 | 13.89° C | 86% | 1013.8 hPa | 0 mm | - | 137 W/m² | - |
| 1777219558 | 14.44° C | 82% | 1013.9 hPa | 0 mm | - | 235 W/m² | - |
| 1777219255 | 14.44° C | 85% | 1013.6 hPa | 0 mm | - | 454 W/m² | - |
| 1777218950 | 13.89° C | 90% | 1013.7 hPa | 0 mm | - | 344 W/m² | - |
| 1777218647 | 13.33° C | 89% | 1013.6 hPa | 0 mm | - | 226 W/m² | - |
| 1777218342 | 13.33° C | 87% | 1013.7 hPa | 0 mm | - | 203 W/m² | - |
| 1777218039 | 13.33° C | 88% | 1013.4 hPa | 0 mm | - | 242 W/m² | - |
| 1777217734 | 12.78° C | 90% | 1013.5 hPa | 0 mm | - | 253 W/m² | - |
| 1777217431 | 12.78° C | 90% | 1013.4 hPa | 0 mm | - | 176 W/m² | - |
| 1777217127 | 12.78° C | 90% | 1013.5 hPa | 0 mm | - | 163 W/m² | - |
| 1777216823 | 12.78° C | 91% | 1013.5 hPa | 3.05 mm | - | 85 W/m² | - |
| 1777216521 | 12.78° C | 90% | 1013.4 hPa | 8.89 mm | - | 52 W/m² | - |
* Rain latest hour (hover to see other rain measurements)
** Current wind speed in m/s (hover to see current wind gust speed)